createdAt,value
2023-04-21T00:05:18.721Z,6.4
2023-04-21T00:11:11.156Z,6.3
2023-04-21T00:17:02.337Z,6.2
2023-04-21T00:22:53.801Z,6.2
2023-04-21T00:28:45.438Z,6.2
2023-04-21T00:34:21.728Z,6.1
2023-04-21T00:40:13.479Z,6
2023-04-21T00:45:50.027Z,5.9
2023-04-21T00:51:26.604Z,5.8
2023-04-21T00:57:02.958Z,5.6
2023-04-21T01:02:40.552Z,5.5
2023-04-21T01:08:33.702Z,5.4
2023-04-21T01:14:09.523Z,5.3
2023-04-21T01:20:01.736Z,5.2
2023-04-21T01:25:52.993Z,5.1
2023-04-21T01:31:43.983Z,5
2023-04-21T01:37:36.351Z,4.9
2023-04-21T01:42:56.570Z,4.8
2023-04-21T01:48:17.796Z,4.7
2023-04-21T01:54:10.032Z,4.6
2023-04-21T01:59:30.298Z,4.6
2023-04-21T02:05:23.980Z,4.5
2023-04-21T02:11:15.511Z,4.4
2023-04-21T02:17:24.065Z,4.4
2023-04-21T02:23:15.607Z,4.3
2023-04-21T02:28:52.134Z,4.2
2023-04-21T02:34:49.964Z,4.2
2023-04-21T02:40:41.662Z,4.1
2023-04-21T02:46:33.461Z,4.2
2023-04-21T02:52:26.030Z,4.3
2023-04-21T02:58:17.330Z,4.4
2023-04-21T03:04:10.693Z,4.5
2023-04-21T03:10:02.097Z,4.6
2023-04-21T03:15:53.659Z,4.7
2023-04-21T03:21:46.424Z,4.8
2023-04-21T03:27:38.282Z,4.8
2023-04-21T03:33:15.715Z,4.9
2023-04-21T03:39:19.041Z,5.1
2023-04-21T03:45:11.269Z,5.2
2023-04-21T03:51:05.402Z,5.4
2023-04-21T03:56:56.969Z,5.6
2023-04-21T04:02:48.110Z,5.6
2023-04-21T04:08:43.124Z,5.8
2023-04-21T04:14:04.211Z,6
2023-04-21T04:19:56.376Z,6.3
2023-04-21T04:25:47.426Z,6.5
2023-04-21T04:31:24.229Z,6.8
2023-04-21T04:37:18.425Z,7.1
2023-04-21T04:43:09.363Z,7.3
2023-04-21T04:49:03.875Z,7.8
2023-04-21T04:54:57.452Z,8.2
2023-04-21T05:00:47.988Z,8.8
2023-04-21T05:06:27.292Z,9.5
2023-04-21T05:12:17.988Z,10.1
2023-04-21T05:18:10.568Z,10.8
2023-04-21T05:24:05.002Z,11.6
2023-04-21T05:29:59.487Z,12.9
2023-04-21T05:35:54.471Z,15.8
2023-04-21T05:41:46.783Z,19.3
2023-04-21T05:47:38.906Z,22.4
2023-04-21T05:52:30.004Z,24.8
2023-04-21T05:58:21.836Z,27.5
2023-04-21T06:03:59.770Z,30.1
2023-04-21T06:09:38.019Z,32.8
2023-04-21T06:15:29.791Z,35.8
2023-04-21T06:21:21.340Z,38.6
2023-04-21T06:26:57.487Z,41.9
2023-04-21T06:32:37.541Z,44.6
2023-04-21T06:38:13.776Z,46.6
2023-04-21T06:44:05.731Z,40.5
2023-04-21T06:49:42.409Z,44.2
2023-04-21T06:55:17.700Z,47.8
2023-04-21T07:01:12.396Z,40.6
2023-04-21T07:07:06.184Z,42.1
2023-04-21T07:12:57.884Z,49
2023-04-21T07:18:49.175Z,46.6
2023-04-21T07:24:41.787Z,41.1
2023-04-21T07:30:17.167Z,47.9
2023-04-21T07:36:08.335Z,50.3
2023-04-21T07:42:01.001Z,44.4
2023-04-21T07:47:51.957Z,47.3
2023-04-21T07:53:42.990Z,46.3
2023-04-21T07:59:34.996Z,43.1
2023-04-21T08:05:13.771Z,40.1
2023-04-21T08:11:11.635Z,39
2023-04-21T08:16:48.434Z,37.3
2023-04-21T08:22:26.973Z,37.7
2023-04-21T08:28:04.976Z,42.5
2023-04-21T08:34:11.216Z,45.8
2023-04-21T08:40:28.244Z,44.9
2023-04-21T08:46:23.243Z,41.1
2023-04-21T08:52:18.089Z,44.9
2023-04-21T08:58:39.874Z,54.4
2023-04-21T09:04:21.163Z,54.3
2023-04-21T09:09:45.353Z,55.2
2023-04-21T09:15:39.321Z,57.3
2023-04-21T09:21:16.212Z,53.9
2023-04-21T09:27:10.507Z,53.3
2023-04-21T09:33:10.789Z,45.8
2023-04-21T09:39:49.474Z,56.8
2023-04-21T09:46:14.088Z,45.4
2023-04-21T09:52:51.194Z,41.9
2023-04-21T09:58:41.915Z,45.6
2023-04-21T10:04:36.628Z,44.3
2023-04-21T10:10:29.541Z,49.8
2023-04-21T10:16:23.139Z,52.2
2023-04-21T10:22:15.578Z,44.1
2023-04-21T10:28:07.451Z,41.3
2023-04-21T10:34:11.597Z,46
2023-04-21T10:40:03.262Z,61.4
2023-04-21T10:45:59.729Z,58.2
2023-04-21T10:51:51.725Z,53.2
2023-04-21T10:57:43.713Z,46.6
2023-04-21T11:03:38.486Z,47.2
2023-04-21T11:09:33.670Z,47.9
2023-04-21T11:15:25.141Z,50.8
2023-04-21T11:21:17.166Z,61.4
2023-04-21T11:27:08.014Z,61.4
2023-04-21T11:32:44.497Z,60.1
2023-04-21T11:38:36.352Z,61
2023-04-21T11:44:27.788Z,62.1
2023-04-21T11:50:20.644Z,61.1
2023-04-21T11:55:56.842Z,63.3
2023-04-21T12:01:49.011Z,62.3
2023-04-21T12:07:28.680Z,63.8
2023-04-21T12:13:19.798Z,63.9
2023-04-21T12:19:13.374Z,62.4
2023-04-21T12:25:05.595Z,62.1
2023-04-21T12:30:59.836Z,58.9
2023-04-21T12:36:53.907Z,52.8
2023-04-21T12:42:45.312Z,50.4
2023-04-21T12:48:39.438Z,49
2023-04-21T12:54:15.873Z,47.3
2023-04-21T13:00:19.996Z,45.6
2023-04-21T13:06:13.700Z,43.9
2023-04-21T13:11:50.764Z,42.4
2023-04-21T13:17:42.480Z,40.9
2023-04-21T13:23:35.766Z,40.1
2023-04-21T13:29:27.278Z,39.1
2023-04-21T13:35:22.161Z,37.8
2023-04-21T13:41:01.184Z,36.8
2023-04-21T13:46:55.121Z,35.6
2023-04-21T13:52:47.895Z,34.8
2023-04-21T13:58:41.417Z,34.4
2023-04-21T14:04:04.874Z,34.3
2023-04-21T14:10:00.939Z,34.2
2023-04-21T14:16:23.436Z,34.6
2023-04-21T14:22:15.446Z,35.7
2023-04-21T14:28:07.433Z,35.2
2023-04-21T14:33:44.909Z,34.1
2023-04-21T14:39:23.499Z,33
2023-04-21T14:45:01.915Z,31.8
2023-04-21T14:50:51.347Z,30.6
2023-04-21T14:56:42.734Z,30.1
2023-04-21T15:02:37.775Z,30.4
2023-04-21T15:08:19.798Z,30.8
2023-04-21T15:13:56.090Z,31.9
2023-04-21T15:19:32.926Z,32.9
2023-04-21T15:25:34.358Z,33.3
2023-04-21T15:31:10.336Z,32.7
2023-04-21T15:36:46.921Z,32
2023-04-21T15:42:33.878Z,31.1
2023-04-21T15:48:13.235Z,29.9
2023-04-21T15:54:05.634Z,28.8
2023-04-21T15:59:59.822Z,27.8
2023-04-21T16:05:54.642Z,26.8
2023-04-21T16:11:32.425Z,25.9
2023-04-21T16:18:00.484Z,24.8
2023-04-21T16:23:52.162Z,23.7
2023-04-21T16:29:45.631Z,22.7
2023-04-21T16:35:38.978Z,21.8
2023-04-21T16:41:32.384Z,20.8
2023-04-21T16:47:25.351Z,19.9
2023-04-21T16:53:18.066Z,19.1
2023-04-21T16:59:08.978Z,18.3
2023-04-21T17:05:02.451Z,17.6
2023-04-21T17:10:54.681Z,16.9
2023-04-21T17:16:45.911Z,16.4
2023-04-21T17:22:39.603Z,15.8
2023-04-21T17:28:48.583Z,15.2
2023-04-21T17:35:09.317Z,14.5
2023-04-21T17:41:15.040Z,13.9
2023-04-21T17:47:06.930Z,13.4
2023-04-21T17:52:42.740Z,13
2023-04-21T17:58:35.173Z,12.6
2023-04-21T18:04:13.748Z,12.3
2023-04-21T18:09:49.416Z,12.1
2023-04-21T18:15:26.853Z,11.8
2023-04-21T18:21:04.050Z,11.6
2023-04-21T18:26:55.021Z,11.3
2023-04-21T18:32:15.996Z,11.3
2023-04-21T18:37:51.333Z,11.2
2023-04-21T18:42:56.857Z,11.1
2023-04-21T18:48:34.635Z,10.9
2023-04-21T18:54:10.643Z,10.9
2023-04-21T18:59:46.733Z,10.8
2023-04-21T19:05:25.065Z,10.7
2023-04-21T19:11:32.512Z,10.6
2023-04-21T19:17:37.369Z,10.4
2023-04-21T19:23:29.369Z,10.3
2023-04-21T19:29:20.481Z,10.1
2023-04-21T19:35:13.514Z,9.9
2023-04-21T19:41:04.953Z,9.9
2023-04-21T19:46:57.049Z,9.8
2023-04-21T19:52:48.540Z,9.8
2023-04-21T19:59:13.262Z,9.6
2023-04-21T20:05:08.272Z,9.4
2023-04-21T20:10:58.547Z,9.3
2023-04-21T20:16:50.913Z,9.3
2023-04-21T20:22:42.906Z,9.1
2023-04-21T20:28:20.411Z,8.9
2023-04-21T20:34:12.511Z,8.7
2023-04-21T20:39:48.380Z,8.6
2023-04-21T20:45:37.828Z,8.4
2023-04-21T20:51:30.539Z,8.3
2023-04-21T20:57:21.366Z,8
2023-04-21T21:03:15.988Z,7.8
2023-04-21T21:09:09.208Z,7.7
2023-04-21T21:15:03.612Z,7.5
2023-04-21T21:20:39.465Z,7.4
2023-04-21T21:26:30.713Z,7.3
2023-04-21T21:32:22.226Z,7.1
2023-04-21T21:38:14.198Z,7
2023-04-21T21:44:06.067Z,6.9
2023-04-21T21:50:02.472Z,6.8
2023-04-21T21:55:38.697Z,6.8
2023-04-21T22:01:34.044Z,6.7
2023-04-21T22:07:29.234Z,6.7
2023-04-21T22:13:21.175Z,6.8
2023-04-21T22:19:24.983Z,6.8
2023-04-21T22:25:16.075Z,6.6
2023-04-21T22:30:52.304Z,6.5
2023-04-21T22:36:44.234Z,6.4
2023-04-21T22:42:34.584Z,6.2
2023-04-21T22:48:26.629Z,6.1
2023-04-21T22:54:18.975Z,6
2023-04-21T23:00:11.336Z,6
2023-04-21T23:06:04.438Z,5.9
2023-04-21T23:11:41.326Z,5.9
2023-04-21T23:17:33.566Z,5.8
2023-04-21T23:23:25.110Z,5.9
2023-04-21T23:29:16.983Z,5.9
2023-04-21T23:35:09.030Z,5.8
2023-04-21T23:41:00.425Z,5.8
2023-04-21T23:46:52.826Z,5.7
2023-04-21T23:52:30.078Z,5.6
2023-04-21T23:58:22.470Z,5.5
